Sunday, November 19, 2017, 8:47 PM EST
Back to Local

KEEN, Keene, Dillant-hopkins Airport

Location: Keene, NH, United States Lat: 42.9
Local Time: 8:47 PM EST ( 1:47 GMT) Lon: -72.267
Time Zone: US/Eastern Elev: 488 ft

Show me the last for .
Show Decoded

2017-11-19 19:56 METAR KEEN 200056Z AUTO 28009KT 10SM OVC043 02/M06 A2958 RMK AO2 SLP037
                 T00221061 FZRANO =
2017-11-19 18:56 METAR KEEN 192356Z AUTO 30011G16KT 270V330 10SM OVC043 02/M06 A2955 RMK AO2 PK
                 WND 29026/2334 SLP029 T00221056 10056 20022 51034 FZRANO =
2017-11-19 17:56 METAR KEEN 192256Z AUTO 30006KT 10SM OVC039 03/M04 A2953 RMK AO2 SLP019
                 T00281039 =
2017-11-19 16:56 METAR KEEN 192156Z AUTO VRB05G19KT 10SM OVC041 03/M04 A2949 RMK AO2 SLP006
                 T00281044 =
2017-11-19 15:56 METAR KEEN 192056Z AUTO 26008KT 10SM OVC041 04/M03 A2945 RMK AO2 SLP993
                 T00441033 53045 =
2017-11-19 14:56 METAR KEEN 191956Z AUTO 30011G18KT 10SM OVC039 06/M03 A2939 RMK AO2 SLP974
                 T00561028 =
2017-11-19 13:56 METAR KEEN 191856Z AUTO 27013G21KT 10SM OVC033 05/M02 A2934 RMK AO2 SLP956
                 T00501017 =
2017-11-19 12:56 METAR KEEN 191756Z AUTO 30007G24KT 260V340 10SM OVC033 06/M01 A2932 RMK AO2
                 SLP948 60005 T00561006 10133 20056 53047 =
2017-11-19 11:56 METAR KEEN 191656Z AUTO 23010G15KT 10SM BKN035 OVC042 07/01 A2925 RMK AO2 SLP925
                 T00720006 =
2017-11-19 11:30 METAR KEEN 191630Z AUTO 23009KT 200V260 10SM FEW027 OVC033 06/01 A2925 RMK AO2 =
2017-11-19 10:56 METAR KEEN 191556Z AUTO 25007KT 200V290 10SM OVC027 06/02 A2924 RMK AO2
                 RAE01B28E40 SLP920 P0000 T00610017 =
2017-11-19 10:25 METAR KEEN 191525Z AUTO 22007G19KT 10SM SCT023 BKN028 OVC060 07/03 A2921 RMK AO2
                 RAE01 PRESRR P0000 =
2017-11-19 10:15 METAR KEEN 191515Z AUTO 21008G22KT 160V260 10SM FEW015 BKN040 OVC050 07/03 A2920
                 RMK AO2 RAE01 PRESRR P0000 =
2017-11-19 09:56 METAR KEEN 191456Z AUTO 24008G18KT 190V270 10SM -RA SCT015 BKN022 OVC040 08/06
                 A2918 RMK AO2 PK WND 26026/1435 WSHFT 1425 RAE03B35 SLP900 P0001 60005 T00830056
                 53010 =
2017-11-19 08:56 METAR KEEN 191356Z AUTO 18010KT 10SM -RA BKN015 BKN040 OVC060 13/12 A2908 RMK
                 AO2 SLP869 P0003 T01280117 =
2017-11-19 07:56 METAR KEEN 191256Z AUTO 18006KT 10SM -RA OVC017 12/12 A2911 RMK AO2 SLP879 P0001
                 T01220117 =
2017-11-19 07:08 METAR KEEN 191208Z AUTO 17007KT 8SM -RA OVC015 12/11 A2914 RMK AO2 P0000 =
2017-11-19 06:56 METAR KEEN 191156Z AUTO 18007KT 10SM -RA OVC013 12/11 A2915 RMK AO2 RAE02B29
                 SLP891 P0003 60018 70029 T01220111 10122 20033 58016 =
2017-11-19 06:34 METAR KEEN 191134Z AUTO 19011G18KT 10SM RA OVC013 12/11 A2916 RMK AO2 RAE02B29
                 P0001 =
2017-11-19 05:56 METAR KEEN 191056Z AUTO 20005KT 10SM -RA OVC015 12/11 A2916 RMK AO2 SLP895 P0000
                 T01170111 =
2017-11-19 04:56 METAR KEEN 190956Z AUTO 17007KT 10SM -RA OVC015 09/09 A2919 RMK AO2 SLP904 P0003
                 T00940094 =
2017-11-19 04:08 METAR KEEN 190908Z AUTO 00000KT 3SM -RA BR OVC013 05/04 A2923 RMK AO2 P0000 =
2017-11-19 03:56 METAR KEEN 190856Z AUTO 00000KT 2SM -RA BR OVC013 05/04 A2923 RMK AO2 PRESFR
                 SLP916 P0004 60012 T00500044 57051 =
2017-11-19 03:36 METAR KEEN 190836Z AUTO 00000KT 3SM -RA BR OVC013 04/04 A2926 RMK AO2 P0003 =
2017-11-19 03:10 METAR KEEN 190810Z AUTO 00000KT 2 1/2SM RA BR OVC011 04/03 A2926 RMK AO2 PRESFR
                 P0002 =
2017-11-19 02:56 METAR KEEN 190756Z AUTO 00000KT 3SM RA BR OVC011 04/03 A2928 RMK AO2 SLP936
                 P0005 T00440033 =
2017-11-19 02:44 METAR KEEN 190744Z AUTO 00000KT 2 1/2SM -RA BR OVC011 04/03 A2928 RMK AO2 P0004
                 =
2017-11-19 02:30 METAR KEEN 190730Z AUTO 00000KT 3SM RA BR OVC011 04/03 A2930 RMK AO2 CIG 007V013
                 P0002 =
2017-11-19 01:56 METAR KEEN 190656Z AUTO 00000KT 3SM -RA BR OVC009 04/03 A2932 RMK AO2 SLP951
                 P0003 T00390028 =
2017-11-19 01:48 METAR KEEN 190648Z AUTO 00000KT 4SM -RA BR OVC009 04/03 A2933 RMK AO2 P0003 =
2017-11-19 01:03 METAR KEEN 190603Z AUTO 01003KT 4SM -RA BR OVC013 03/02 A2937 RMK AO2 P0001 =
2017-11-19 00:56 METAR KEEN 190556Z AUTO 00000KT 4SM -RA BR OVC015 03/02 A2938 RMK AO2 SLP968
                 P0003 60011 T00330022 10033 20011 56041 =
2017-11-19 00:06 METAR KEEN 190506Z AUTO 00000KT 4SM RA BR OVC015 03/03 A2941 RMK AO2 P0001 =
2017-11-18 23:56 METAR KEEN 190456Z AUTO 00000KT 4SM -RA BR OVC013 03/02 A2942 RMK AO2
                 RAB03UPB45E50 SLP981 P0002 T00280022 400441083 =
2017-11-18 22:56 METAR KEEN 190356Z AUTO 00000KT 4SM BR OVC013 02/01 A2946 RMK AO2 RAE53 SLP997
                 P0000 T00220011 FZRANO =
2017-11-18 22:44 METAR KEEN 190344Z AUTO 00000KT 5SM -RA BR OVC013 02/01 A2947 RMK AO2 P0000
                 FZRANO =
2017-11-18 21:56 METAR KEEN 190256Z AUTO 00000KT 4SM -RA BR OVC015 02/01 A2950 RMK AO2 UPB14E51
                 SLP009 P0000 60006 T00170006 58040 FZRANO =
2017-11-18 21:07 METAR KEEN 190207Z AUTO 00000KT 7SM -RA OVC017 02/00 A2953 RMK AO2 P0000 FZRANO
                 =
2017-11-18 20:56 METAR KEEN 190156Z AUTO 00000KT 6SM -RA BR BKN014 BKN020 OVC027 02/00 A2954 RMK
                 AO2 SLP022 P0004 T00170000 FZRANO =

Support USWX by starting your Amazon purchase here.